»·PEaware :: FFT9201 KSNA-KLAX

FFT9201 :: KSNA-KLAX

FLIGHT INFORMATION

Flight Status: Arrived
Operator:
Frontier Airlines
More flights by this operator :: More flights under this callsign
Pilot: Andrew J. (13363)
Aircraft: AIRBUS A320
(A320)
More flights by this aircraft type
Origin: KSNA John Wayne-Orange Co
United States
Destination: KLAX Los Angeles Intl
United States
More flights between these airports :: More routes between these airports
Route: +MUSEL8 SLI
File this flight plan on PilotEdge
Remarks:
Altitude:
(Current/Filed)
8,000ft
Speed:
(Current/Filed)
292kts
Departed: 14-Oct-20 04:26 PM
Arrived: 14-Oct-20 04:42 PM
Distance/Time
Traveled:
31nm/0:15
Distance/Time
To Go:
Arrived

Flight Plot

Page will automatically refresh every two minutes.

Flight plan parsing failed; only flown route is shown


Map Options




Map Legend


Flown Route
Filed Route
Departure Airport
Arrival Airport
Navaid (VOR, NDB)
Fix

Horizontal Profiles

Position Reports

Time Latitude Longitude Heading Altitude Ground
Speed
14-Oct-20 16:03 33.676736 -117.863974 117 64ft 0kts
14-Oct-20 16:04 33.676736 -117.863974 117 64ft 0kts
14-Oct-20 16:05 33.676736 -117.863974 117 65ft 0kts
14-Oct-20 16:06 33.676736 -117.863974 117 65ft 0kts
14-Oct-20 16:07 33.676736 -117.863974 117 65ft 0kts
14-Oct-20 16:08 33.676736 -117.863974 117 65ft 0kts
14-Oct-20 16:09 33.676736 -117.863974 117 65ft 0kts
14-Oct-20 16:10 33.676736 -117.863974 117 65ft 0kts
14-Oct-20 16:11 33.676736 -117.863974 117 65ft 0kts
14-Oct-20 16:12 33.676736 -117.863974 117 65ft 0kts
14-Oct-20 16:13 33.676736 -117.863974 117 65ft 0kts
14-Oct-20 16:14 33.676736 -117.863974 117 65ft 0kts
14-Oct-20 16:15 33.676736 -117.863974 117 65ft 0kts
14-Oct-20 16:16 33.676819 -117.864303 90 65ft 2kts
14-Oct-20 16:17 33.676546 -117.864912 30 65ft 2kts
14-Oct-20 16:18 33.676098 -117.865194 27 65ft 0kts
14-Oct-20 16:19 33.676098 -117.865194 27 65ft 0kts
14-Oct-20 16:20 33.676098 -117.865194 27 65ft 0kts
14-Oct-20 16:21 33.676098 -117.865194 27 65ft 0kts
14-Oct-20 16:22 33.677014 -117.864610 27 65ft 10kts
14-Oct-20 16:23 33.680432 -117.862749 329 65ft 6kts
14-Oct-20 16:24 33.680749 -117.863268 297 65ft 5kts
14-Oct-20 16:25 33.679848 -117.866182 207 65ft 61kts
14-Oct-20 16:26 33.647516 -117.886476 202 2686ft 163kts
14-Oct-20 16:27 33.593068 -117.898469 188 6263ft 241kts
14-Oct-20 16:28 33.521311 -117.921667 224 6983ft 277kts
14-Oct-20 16:29 33.531754 -118.001547 328 6997ft 282kts
14-Oct-20 16:30 33.605980 -118.026791 354 6989ft 281kts
14-Oct-20 16:31 33.683502 -118.038441 352 6988ft 281kts
14-Oct-20 16:32 33.759405 -118.051104 352 6988ft 265kts
14-Oct-20 16:34 33.832268 -118.064860 351 6985ft 264kts
14-Oct-20 16:35 33.903887 -118.078294 351 5579ft 259kts
14-Oct-20 16:36 33.957658 -118.120993 286 3754ft 239kts
14-Oct-20 16:37 33.956798 -118.192274 262 3212ft 201kts
14-Oct-20 16:38 33.950489 -118.255352 261 2203ft 178kts
14-Oct-20 16:39 33.945130 -118.307304 262 1344ft 132kts
14-Oct-20 16:40 33.941125 -118.345767 262 763ft 111kts
14-Oct-20 16:41 33.937388 -118.382652 262 152ft 109kts
14-Oct-20 16:42 33.935687 -118.401558 277 123ft 30kts
14-Oct-20 16:43 33.937466 -118.409076 357 133ft 21kts
14-Oct-20 16:44 33.938213 -118.405613 81 131ft 3kts
14-Oct-20 16:45 33.939806 -118.404680 59 129ft 0kts
14-Oct-20 16:46 33.939824 -118.404643 59 128ft 0kts
14-Oct-20 16:47 33.939824 -118.404643 59 128ft 0kts
14-Oct-20 16:48 33.939824 -118.404643 59 128ft 0kts
14-Oct-20 16:49 33.939824 -118.404643 59 128ft 0kts
14-Oct-20 16:50 33.939824 -118.404643 59 128ft 0kts
14-Oct-20 16:51 33.939824 -118.404643 59 128ft 0kts
14-Oct-20 16:52 33.939824 -118.404643 59 128ft 0kts
14-Oct-20 16:52 33.939824 -118.404643 59 128ft 0kts
14-Oct-20 16:54 33.939824 -118.404643 59 128ft 0kts
14-Oct-20 16:54 33.939824 -118.404643 59 128ft 0kts

Navigation Log

Ident Type
Flight plan parsing failed, navigation log unavailable